Time;durP1;ratioP1;P1;durP2;ratioP2;P2;SDS_P1;SDS_P2;PMS_P1;PMS_P2;Temp;Humidity;BMP_temperature;BMP_pressure;BME280_temperature;BME280_humidity;BME280_pressure;Samples;Min_cycle;Max_cycle;Signal;HPM_P1;HPM_P2
2023/05/31 00:02:02;;;;;;;11.20;3.20;;;;;;;7.79;54.84;102802.25;5080530;28;20065;-72
2023/05/31 00:04:28;;;;;;;6.00;2.70;;;;;;;7.69;55.00;102802.22;5075438;28;20062;-74
2023/05/31 00:06:54;;;;;;;6.25;2.75;;;;;;;7.78;54.91;102797.88;5094625;27;20031;-72
2023/05/31 00:09:19;;;;;;;3.60;1.80;;;;;;;7.78;54.69;102798.78;5080484;27;20063;-73
2023/05/31 00:11:45;;;;;;;7.30;2.33;;;;;;;7.79;54.24;102795.28;5067153;28;20423;-73
2023/05/31 00:14:10;;;;;;;9.50;2.85;;;;;;;7.70;54.64;102787.47;5081627;27;20740;-72
2023/05/31 00:16:36;;;;;;;3.63;2.15;;;;;;;7.64;54.94;102784.84;5083823;28;20028;-73
2023/05/31 00:19:01;;;;;;;5.72;2.30;;;;;;;7.61;54.49;102787.44;5113684;27;20411;-72
2023/05/31 00:21:27;;;;;;;4.35;2.42;;;;;;;7.59;54.46;102790.03;5078719;28;20185;-73
2023/05/31 00:23:52;;;;;;;8.88;2.67;;;;;;;7.58;54.43;102796.13;5093621;27;20047;-73
2023/05/31 00:26:18;;;;;;;6.35;2.20;;;;;;;7.62;54.51;102791.78;5092176;27;20020;-73
2023/05/31 00:28:45;;;;;;;4.68;2.15;;;;;;;7.50;54.48;102784.78;5088430;27;20055;-71
2023/05/31 00:31:11;;;;;;;6.78;2.92;;;;;;;7.36;54.14;102789.94;5080849;28;21116;-70
2023/05/31 00:33:36;;;;;;;4.78;2.08;;;;;;;7.43;54.17;102783.88;5104720;27;20046;-70
2023/05/31 00:36:02;;;;;;;4.68;2.25;;;;;;;7.40;54.06;102790.78;5066615;28;20269;-69
2023/05/31 00:38:27;;;;;;;4.72;2.38;;;;;;;7.32;54.08;102781.22;5041659;28;20547;-70
2023/05/31 00:40:53;;;;;;;5.40;1.40;;;;;;;7.29;54.29;102782.97;5060377;28;20143;-71
2023/05/31 00:43:18;;;;;;;6.85;2.15;;;;;;;7.20;54.34;102781.19;5055899;28;20040;-71
2023/05/31 00:45:44;;;;;;;5.72;3.03;;;;;;;7.15;54.41;102779.41;5055960;28;20104;-72
2023/05/31 00:48:10;;;;;;;6.35;2.70;;;;;;;7.12;54.57;102785.47;5065608;27;20066;-71
2023/05/31 00:50:35;;;;;;;6.70;2.08;;;;;;;7.14;54.33;102783.75;5059092;28;20043;-71
2023/05/31 00:53:02;;;;;;;6.03;2.30;;;;;;;7.11;54.27;102779.41;5060325;27;20058;-72
2023/05/31 00:55:28;;;;;;;5.75;2.08;;;;;;;7.04;54.45;102784.56;5071148;28;20762;-73
2023/05/31 00:57:54;;;;;;;6.65;2.55;;;;;;;6.99;54.29;102778.47;5060679;27;20040;-72
2023/05/31 01:00:20;;;;;;;5.40;2.38;;;;;;;7.05;54.73;102783.72;5083617;28;20054;-73
2023/05/31 01:02:45;;;;;;;5.82;2.42;;;;;;;7.07;54.59;102782.00;5061146;27;20090;-72
2023/05/31 01:05:11;;;;;;;9.98;3.05;;;;;;;7.07;54.51;102782.00;5076492;28;20307;-72
2023/05/31 01:07:37;;;;;;;5.68;2.42;;;;;;;7.04;54.40;102776.75;5063532;27;20040;-71
2023/05/31 01:10:05;;;;;;;5.90;2.75;;;;;;;7.01;54.58;102777.63;5064950;28;20036;-73
2023/05/31 01:12:55;;;;;;;6.18;2.00;;;;;;;7.02;54.54;102783.69;5076002;28;20045;-78
2023/05/31 01:15:32;;;;;;;5.97;2.47;;;;;;;6.98;54.72;102788.00;5063109;28;20055;-75
2023/05/31 01:18:09;;;;;;;4.57;2.10;;;;;;;6.97;54.54;102791.44;5045338;28;20552;-72
2023/05/31 01:20:37;;;;;;;6.78;3.28;;;;;;;6.99;54.37;102788.88;5061711;28;20039;-66
2023/05/31 01:23:13;;;;;;;9.52;2.88;;;;;;;6.94;54.54;102781.06;5050454;28;20036;-67
2023/05/31 01:26:05;;;;;;;7.28;2.75;;;;;;;6.87;54.71;102790.53;5051181;28;20451;-67
2023/05/31 01:28:36;;;;;;;8.75;2.67;;;;;;;6.79;54.57;102787.00;5052161;27;20474;-66
2023/05/31 01:31:05;;;;;;;8.30;2.67;;;;;;;6.83;54.50;102796.56;5060358;28;20058;-68
2023/05/31 01:33:32;;;;;;;7.70;2.28;;;;;;;6.83;54.61;102791.38;5063298;27;20413;-69
2023/05/31 01:35:58;;;;;;;4.85;2.60;;;;;;;6.81;54.50;102789.63;5062739;28;20039;-67
2023/05/31 01:38:23;;;;;;;4.82;2.45;;;;;;;6.80;54.63;102782.72;5058024;28;20048;-69
2023/05/31 01:40:49;;;;;;;6.50;2.60;;;;;;;6.85;54.62;102792.25;5083138;28;20614;-66
2023/05/31 01:43:16;;;;;;;6.95;3.13;;;;;;;6.89;54.85;102791.44;5074072;28;20044;-68
2023/05/31 01:45:42;;;;;;;4.70;2.28;;;;;;;6.90;54.85;102792.28;5075146;28;20501;-69
2023/05/31 01:48:10;;;;;;;8.57;2.70;;;;;;;6.90;54.47;102795.75;5074345;27;20047;-67
2023/05/31 01:50:36;;;;;;;9.48;3.85;;;;;;;6.84;54.99;102792.25;5059414;28;20302;-67
2023/05/31 01:53:03;;;;;;;7.97;2.95;;;;;;;6.87;54.92;102795.75;5063130;28;20129;-68
2023/05/31 01:55:30;;;;;;;10.20;2.97;;;;;;;6.87;54.73;102794.88;5078517;28;20550;-67
2023/05/31 01:57:56;;;;;;;4.03;2.90;;;;;;;6.91;54.61;102800.09;5070055;27;20056;-68
2023/05/31 02:00:26;;;;;;;6.40;2.70;;;;;;;6.92;54.78;102803.56;5074366;28;20074;-67
2023/05/31 02:02:53;;;;;;;7.80;3.70;;;;;;;6.99;55.02;102791.47;5070585;28;20051;-65
2023/05/31 02:05:19;;;;;;;8.02;3.60;;;;;;;7.08;54.68;102801.91;5056248;28;20066;-65
2023/05/31 02:07:47;;;;;;;6.57;3.40;;;;;;;7.12;54.53;102801.06;5105564;27;20126;-68
2023/05/31 02:10:14;;;;;;;5.75;3.10;;;;;;;7.04;54.53;102792.34;5077410;28;20063;-70
2023/05/31 02:12:40;;;;;;;9.98;3.30;;;;;;;7.03;54.47;102798.44;5064342;28;20035;-70
2023/05/31 02:15:12;;;;;;;9.10;3.58;;;;;;;6.97;54.84;102791.44;5062010;28;20059;-73
2023/05/31 02:17:45;;;;;;;8.90;3.60;;;;;;;6.86;54.88;102785.31;5057588;28;20585;-72
2023/05/31 02:20:12;;;;;;;7.47;3.50;;;;;;;6.86;54.79;102790.53;5069589;28;20174;-69
2023/05/31 02:22:42;;;;;;;5.68;3.33;;;;;;;6.86;54.96;102791.41;5082487;27;20615;-67
2023/05/31 02:25:10;;;;;;;6.63;3.88;;;;;;;6.77;54.96;102796.53;5070427;28;20032;-71
2023/05/31 02:27:38;;;;;;;11.80;4.65;;;;;;;6.70;55.31;102797.34;5073942;27;20314;-70
2023/05/31 02:30:06;;;;;;;8.43;3.28;;;;;;;6.68;55.13;102783.47;5091653;27;20034;-71
2023/05/31 02:32:38;;;;;;;11.68;5.03;;;;;;;6.77;55.30;102787.88;5077123;27;20096;-71
2023/05/31 02:35:06;;;;;;;17.63;3.88;;;;;;;6.87;55.08;102795.75;5091852;27;20549;-76
2023/05/31 02:37:32;;;;;;;5.82;3.15;;;;;;;6.78;54.80;102795.69;5078733;27;20040;-76
2023/05/31 02:39:58;;;;;;;7.47;3.78;;;;;;;6.84;55.08;102781.84;5094811;27;20035;-75
2023/05/31 02:42:24;;;;;;;11.23;4.30;;;;;;;6.85;55.05;102784.47;5070914;27;20088;-75
2023/05/31 02:44:49;;;;;;;9.75;4.10;;;;;;;6.91;55.06;102796.63;5083949;27;20024;-76
2023/05/31 02:47:16;;;;;;;12.98;3.50;;;;;;;6.90;54.78;102789.69;5078355;27;20055;-74
2023/05/31 02:49:42;;;;;;;4.45;2.28;;;;;;;6.85;54.71;102789.66;5080360;27;20555;-74
2023/05/31 02:52:08;;;;;;;8.35;2.70;;;;;;;6.88;54.66;102779.28;5067087;27;20066;-72
2023/05/31 02:55:05;;;;;;;4.95;2.58;;;;;;;6.84;54.97;102781.84;5105032;27;20066;-74
2023/05/31 02:57:37;;;;;;;7.95;3.63;;;;;;;6.81;55.12;102787.91;5083868;27;20055;-72
2023/05/31 03:00:10;;;;;;;11.20;3.67;;;;;;;6.90;55.04;102795.75;5045695;28;20404;-74
2023/05/31 03:02:40;;;;;;;6.32;2.85;;;;;;;6.81;55.01;102790.50;5070366;28;20047;-74
2023/05/31 03:05:26;;;;;;;9.20;4.00;;;;;;;6.78;55.02;102782.69;5074702;28;20878;-72
2023/05/31 03:07:52;;;;;;;5.40;2.70;;;;;;;6.74;55.08;102788.72;5077124;28;20112;-72
2023/05/31 03:10:17;;;;;;;7.95;3.88;;;;;;;6.77;55.04;102791.31;5069277;28;20093;-72
2023/05/31 03:12:43;;;;;;;4.97;3.33;;;;;;;6.72;54.75;102781.78;5068752;27;20044;-75
2023/05/31 03:15:09;;;;;;;5.45;3.13;;;;;;;6.69;55.21;102790.44;5054619;28;20048;-72
2023/05/31 03:17:37;;;;;;;5.00;2.47;;;;;;;6.66;55.26;102785.19;5043679;28;20052;-71
2023/05/31 03:20:09;;;;;;;5.85;3.13;;;;;;;6.68;55.00;102786.94;5070871;28;20497;-67
2023/05/31 03:22:37;;;;;;;8.15;3.30;;;;;;;6.73;54.77;102784.41;5049405;28;20036;-65
2023/05/31 03:25:03;;;;;;;7.13;3.17;;;;;;;6.65;55.04;102788.66;5063778;28;20040;-66
2023/05/31 03:27:30;;;;;;;6.57;3.65;;;;;;;6.55;54.95;102782.53;5066112;27;20112;-71
2023/05/31 03:29:56;;;;;;;4.35;2.40;;;;;;;6.57;54.91;102782.53;5073552;28;20055;-73
2023/05/31 03:32:22;;;;;;;6.00;3.55;;;;;;;6.60;55.02;102786.03;5064964;27;20039;-69
2023/05/31 03:34:48;;;;;;;8.45;3.38;;;;;;;6.62;55.16;102788.63;5083932;28;20023;-69
2023/05/31 03:37:14;;;;;;;7.70;2.38;;;;;;;6.68;55.19;102788.66;5083392;28;20100;-72
2023/05/31 03:39:45;;;;;;;8.90;3.15;;;;;;;6.71;55.00;102788.72;5111198;27;20135;-71
2023/05/31 03:42:21;;;;;;;7.95;3.33;;;;;;;6.73;55.00;102789.59;5077053;27;20318;-72
2023/05/31 03:44:47;;;;;;;7.80;3.60;;;;;;;6.77;55.10;102787.88;5080837;28;20197;-68
2023/05/31 03:47:12;;;;;;;6.32;3.15;;;;;;;6.81;55.24;102787.91;5085356;27;20039;-68
2023/05/31 03:49:38;;;;;;;6.65;4.10;;;;;;;6.85;54.85;102787.06;5084993;28;22330;-71
2023/05/31 03:52:05;;;;;;;8.82;3.83;;;;;;;6.91;55.62;102783.66;5079398;27;20624;-72
2023/05/31 03:54:31;;;;;;;7.45;3.78;;;;;;;7.01;55.52;102779.34;5060542;28;20060;-73
2023/05/31 03:56:57;;;;;;;8.07;3.70;;;;;;;7.14;55.47;102773.34;5058421;28;20028;-72
2023/05/31 03:59:22;;;;;;;7.05;3.92;;;;;;;7.16;55.26;102787.25;5052870;28;20048;-70
2023/05/31 04:01:49;;;;;;;7.82;3.38;;;;;;;7.20;54.99;102783.78;5062031;28;20032;-73
2023/05/31 04:04:14;;;;;;;8.38;3.95;;;;;;;7.27;55.08;102785.56;5081165;27;20044;-73
2023/05/31 04:06:40;;;;;;;11.45;4.15;;;;;;;7.33;55.11;102782.97;5086801;28;20032;-75
2023/05/31 04:09:05;;;;;;;10.02;4.00;;;;;;;7.41;54.97;102776.94;5112398;27;20048;-73
2023/05/31 04:11:31;;;;;;;9.68;4.00;;;;;;;7.49;55.33;102783.06;5105387;27;20088;-69
2023/05/31 04:13:58;;;;;;;7.25;3.65;;;;;;;7.61;55.18;102784.84;5073913;27;20063;-69
2023/05/31 04:16:24;;;;;;;8.70;4.20;;;;;;;7.70;55.03;102785.72;5079260;28;20065;-71
2023/05/31 04:18:50;;;;;;;10.77;3.30;;;;;;;7.84;55.60;102787.50;5079306;27;20035;-69
2023/05/31 04:21:16;;;;;;;8.13;3.30;;;;;;;8.01;55.15;102790.13;5079248;28;20057;-71
2023/05/31 04:23:43;;;;;;;10.30;3.28;;;;;;;8.11;55.18;102786.66;5077011;28;20127;-70
2023/05/31 04:26:16;;;;;;;8.88;3.35;;;;;;;8.31;55.01;102784.06;5080772;28;20449;-71
2023/05/31 04:28:53;;;;;;;9.90;4.30;;;;;;;8.37;54.61;102791.88;5064239;28;20047;-70
2023/05/31 04:31:24;;;;;;;8.80;3.83;;;;;;;8.46;54.89;102789.28;5094307;27;20036;-71
2023/05/31 04:33:56;;;;;;;7.68;3.30;;;;;;;8.59;54.83;102786.69;5097650;27;20400;-71
2023/05/31 04:36:26;;;;;;;5.55;2.67;;;;;;;8.77;55.17;102791.88;5098582;27;20039;-73
2023/05/31 04:38:55;;;;;;;10.00;3.20;;;;;;;8.83;55.27;102797.09;5060119;28;22389;-72
2023/05/31 04:41:25;;;;;;;10.88;3.05;;;;;;;9.02;55.10;102794.44;5065846;28;20036;-71
2023/05/31 04:43:53;;;;;;;5.55;1.80;;;;;;;9.19;55.27;102796.13;5064743;28;20044;-70
2023/05/31 04:46:21;;;;;;;5.95;2.38;;;;;;;9.29;55.17;102796.94;5072350;28;20849;-71
2023/05/31 04:48:49;;;;;;;6.45;2.00;;;;;;;9.34;55.34;102797.81;5065168;28;20520;-71
2023/05/31 04:51:17;;;;;;;5.22;1.73;;;;;;;9.67;54.91;102797.66;5102395;27;20048;-72
2023/05/31 04:53:47;;;;;;;5.93;1.80;;;;;;;9.85;54.60;102794.94;5042394;28;20489;-71
2023/05/31 04:56:14;;;;;;;3.97;1.67;;;;;;;10.20;54.52;102792.09;5053611;28;20518;-74
2023/05/31 04:58:40;;;;;;;4.85;1.23;;;;;;;10.84;53.59;102797.66;5053228;28;20036;-74
2023/05/31 05:01:07;;;;;;;3.45;0.98;;;;;;;12.54;50.01;102788.31;5055542;28;20085;-74
2023/05/31 05:03:55;;;;;;;7.32;1.35;;;;;;;14.16;45.64;102778.75;5053006;28;20107;-74
2023/05/31 05:06:22;;;;;;;3.85;1.00;;;;;;;15.46;43.81;102771.72;5058280;28;20041;-74
2023/05/31 05:08:47;;;;;;;3.25;1.08;;;;;;;16.37;39.36;102782.84;5065540;28;20078;-75
2023/05/31 05:11:14;;;;;;;4.65;0.75;;;;;;;16.66;39.66;102783.59;5093220;27;20555;-76
2023/05/31 05:13:40;;;;;;;3.85;0.57;;;;;;;16.92;39.10;102784.47;5049071;27;20051;-75
2023/05/31 05:16:06;;;;;;;4.25;0.68;;;;;;;17.97;38.08;102782.16;5053906;28;20138;-75
2023/05/31 05:18:32;;;;;;;3.40;0.55;;;;;;;18.47;36.26;102787.13;5044927;28;20036;-73
2023/05/31 05:20:59;;;;;;;4.93;0.40;;;;;;;18.88;35.88;102781.81;5074874;28;20116;-73
2023/05/31 05:23:27;;;;;;;1.95;0.32;;;;;;;19.45;33.72;102775.66;5052354;28;20052;-73
2023/05/31 05:25:54;;;;;;;8.85;0.50;;;;;;;19.68;33.39;102780.75;5053716;28;20563;-68
2023/05/31 05:28:22;;;;;;;1.30;0.40;;;;;;;19.42;34.84;102781.09;5070811;28;20557;-77
2023/05/31 05:30:49;;;;;;;6.57;0.43;;;;;;;19.34;34.06;102786.75;5058588;28;20028;-72
2023/05/31 05:33:15;;;;;;;1.77;0.20;;;;;;;19.60;33.54;102785.56;5047080;28;20094;-70
2023/05/31 05:35:40;;;;;;;3.00;0.20;;;;;;;20.01;33.82;102782.63;5078911;27;20307;-68
2023/05/31 05:38:07;;;;;;;2.65;0.35;;;;;;;20.32;33.23;102786.41;5045217;28;20455;-68
2023/05/31 05:40:33;;;;;;;3.60;0.60;;;;;;;20.20;32.83;102787.88;5039126;28;20040;-66
2023/05/31 05:42:58;;;;;;;2.25;0.40;;;;;;;19.89;33.64;102789.44;5061249;28;20074;-68
2023/05/31 05:45:24;;;;;;;1.85;0.43;;;;;;;20.10;32.81;102782.19;5038168;28;20024;-68
2023/05/31 05:47:50;;;;;;;1.02;0.20;;;;;;;19.95;33.58;102780.31;5065302;28;20041;-67
2023/05/31 05:50:17;;;;;;;0.88;0.13;;;;;;;20.33;31.95;102785.50;5054603;28;20028;-66
2023/05/31 05:52:43;;;;;;;1.75;0.40;;;;;;;20.48;32.85;102784.69;5053537;28;20784;-67
2023/05/31 05:55:08;;;;;;;3.28;0.20;;;;;;;20.07;32.96;102785.00;5053941;28;20059;-66
2023/05/31 05:57:34;;;;;;;1.83;0.65;;;;;;;21.19;31.69;102780.91;5045110;28;20299;-68
2023/05/31 06:00:31;;;;;;;4.47;0.20;;;;;;;21.42;30.87;102782.28;5089519;27;20124;-68
2023/05/31 06:02:58;;;;;;;4.40;0.35;;;;;;;21.72;30.30;102774.41;5076858;28;21043;-67
2023/05/31 06:05:26;;;;;;;1.52;0.15;;;;;;;21.15;31.88;102779.38;5058007;28;20047;-68
2023/05/31 06:07:53;;;;;;;1.33;0.10;;;;;;;21.77;30.66;102772.31;5072457;27;20097;-67
2023/05/31 06:10:19;;;;;;;3.13;0.20;;;;;;;22.46;30.53;102779.84;5062693;28;20132;-68
2023/05/31 06:12:44;;;;;;;5.15;0.20;;;;;;;23.11;28.20;102766.03;5036952;28;20050;-65
2023/05/31 06:15:11;;;;;;;2.03;0.20;;;;;;;22.51;29.32;102767.09;5044454;28;20040;-65
2023/05/31 06:17:37;;;;;;;0.77;0.10;;;;;;;21.26;31.56;102771.66;5053972;28;20032;-69
2023/05/31 06:20:05;;;;;;;2.30;0.17;;;;;;;22.35;29.31;102772.50;5063871;28;20125;-67
2023/05/31 06:22:31;;;;;;;2.55;0.32;;;;;;;23.34;28.29;102768.13;5072707;28;20653;-69
2023/05/31 06:24:57;;;;;;;1.20;0.25;;;;;;;23.90;27.24;102767.13;5086440;27;20047;-68
2023/05/31 06:27:23;;;;;;;1.80;0.20;;;;;;;24.34;27.16;102761.41;5094467;27;20028;-67
2023/05/31 06:29:54;;;;;;;4.43;0.50;;;;;;;24.64;26.23;102771.81;5058084;27;20665;-66
2023/05/31 06:32:27;;;;;;;2.80;0.20;;;;;;;24.30;27.00;102772.44;5065837;27;20040;-66
2023/05/31 06:34:53;;;;;;;2.35;0.25;;;;;;;24.32;26.36;102771.34;5040459;28;20100;-69
2023/05/31 06:37:21;;;;;;;3.40;0.50;;;;;;;24.76;25.69;102775.44;5051665;28;20044;-66
2023/05/31 06:39:47;;;;;;;4.90;0.20;;;;;;;23.94;27.51;102772.16;5073492;28;20027;-65
2023/05/31 06:42:13;;;;;;;2.58;0.30;;;;;;;24.87;26.33;102766.66;5096635;27;20084;-67
2023/05/31 06:44:45;;;;;;;4.30;0.35;;;;;;;25.00;26.05;102766.66;5053712;28;20417;-67
2023/05/31 06:47:21;;;;;;;1.33;0.22;;;;;;;24.64;26.18;102770.97;5034025;27;20036;-68
2023/05/31 06:50:07;;;;;;;2.90;0.30;;;;;;;23.64;28.02;102769.72;5040162;28;20044;-68
2023/05/31 06:52:55;;;;;;;0.80;0.20;;;;;;;24.00;26.63;102770.91;5049478;27;20051;-67
2023/05/31 06:55:24;;;;;;;4.28;0.28;;;;;;;24.78;26.38;102773.50;5069628;27;20127;-69
2023/05/31 06:57:50;;;;;;;2.58;0.30;;;;;;;24.51;26.86;102772.78;5065494;27;20050;-66
2023/05/31 07:00:16;;;;;;;2.97;0.20;;;;;;;25.08;25.40;102769.59;5047690;28;20059;-67
2023/05/31 07:02:42;;;;;;;1.80;0.30;;;;;;;25.26;25.01;102762.06;5051934;27;20036;-68
2023/05/31 07:05:08;;;;;;;3.40;0.30;;;;;;;26.06;24.15;102767.66;5070993;28;20393;-68
2023/05/31 07:07:34;;;;;;;6.55;0.43;;;;;;;25.48;24.61;102772.88;5065989;27;20148;-72
2023/05/31 07:10:00;;;;;;;2.38;0.20;;;;;;;26.46;23.38;102764.56;5058969;28;20119;-69
2023/05/31 07:12:26;;;;;;;1.67;0.30;;;;;;;25.99;24.71;102765.56;5053111;28;20531;-69
2023/05/31 07:14:52;;;;;;;4.65;0.30;;;;;;;25.57;24.96;102765.16;5066111;28;20044;-69
2023/05/31 07:17:18;;;;;;;2.47;0.20;;;;;;;25.13;25.62;102772.81;5069470;27;20028;-70
2023/05/31 07:19:46;;;;;;;3.28;0.43;;;;;;;25.73;25.74;102771.06;5074756;28;20548;-69
2023/05/31 07:22:16;;;;;;;1.83;0.22;;;;;;;25.92;24.54;102765.16;5067377;28;20054;-70
2023/05/31 07:24:42;;;;;;;1.15;0.50;;;;;;;25.91;24.18;102763.47;5067323;28;20059;-69
2023/05/31 07:27:08;;;;;;;7.28;1.73;;;;;;;25.11;24.80;102773.88;5066975;28;20485;-70
2023/05/31 07:29:35;;;;;;;1.55;0.40;;;;;;;24.41;26.30;102775.22;5049336;28;20520;-70
2023/05/31 07:32:00;;;;;;;3.20;0.30;;;;;;;24.15;26.73;102763.69;5050787;28;20040;-69
2023/05/31 07:34:26;;;;;;;2.85;0.40;;;;;;;24.18;26.57;102766.97;5051341;28;20101;-69
2023/05/31 07:36:51;;;;;;;4.00;0.57;;;;;;;24.49;26.22;102767.56;5050514;28;20078;-68
2023/05/31 07:39:17;;;;;;;1.65;0.20;;;;;;;25.10;25.84;102766.84;5057014;28;20075;-68
2023/05/31 07:41:42;;;;;;;4.50;0.30;;;;;;;25.53;25.38;102763.69;5054023;28;20522;-69
2023/05/31 07:44:08;;;;;;;4.82;0.60;;;;;;;24.97;25.21;102767.75;5050820;27;20071;-68
2023/05/31 07:46:35;;;;;;;5.68;1.00;;;;;;;24.49;26.78;102762.22;5045545;28;22530;-70
2023/05/31 07:49:02;;;;;;;6.00;0.73;;;;;;;25.53;25.48;102764.56;5049699;27;20179;-69
2023/05/31 07:51:29;;;;;;;7.13;0.90;;;;;;;26.12;24.72;102769.03;5066730;27;20039;-68
2023/05/31 07:53:55;;;;;;;7.72;0.40;;;;;;;24.56;25.35;102770.66;5055148;27;20131;-70
2023/05/31 07:56:21;;;;;;;2.90;0.75;;;;;;;24.19;26.29;102771.38;5049489;28;20113;-69
2023/05/31 07:58:46;;;;;;;3.85;1.10;;;;;;;22.54;28.06;102775.78;5046716;27;20078;-69
2023/05/31 08:01:12;;;;;;;3.55;0.88;;;;;;;21.98;29.17;102770.22;5048555;28;20126;-69
2023/05/31 08:03:38;;;;;;;5.05;0.98;;;;;;;21.92;29.81;102775.03;5051754;27;20132;-69
2023/05/31 08:06:04;;;;;;;5.78;1.35;;;;;;;19.89;32.61;102776.16;5049367;28;20028;-69
2023/05/31 08:08:32;;;;;;;7.00;1.10;;;;;;;21.09;31.03;102777.06;5061767;27;20050;-68
2023/05/31 08:10:59;;;;;;;6.95;1.40;;;;;;;20.74;32.07;102779.81;5077842;27;20564;-70
2023/05/31 08:13:24;;;;;;;5.55;1.13;;;;;;;19.43;33.74;102782.81;5071448;28;20043;-68
2023/05/31 08:15:51;;;;;;;3.67;1.08;;;;;;;19.35;34.23;102787.63;5071755;27;20571;-68
2023/05/31 08:18:17;;;;;;;12.05;1.90;;;;;;;18.78;34.60;102793.69;5058642;27;20044;-70
2023/05/31 08:20:43;;;;;;;3.67;1.25;;;;;;;17.66;36.84;102787.81;5051418;28;20050;-69
2023/05/31 08:23:09;;;;;;;8.50;2.08;;;;;;;17.19;37.24;102793.16;5049379;27;20786;-69
2023/05/31 08:25:35;;;;;;;3.63;2.40;;;;;;;16.59;38.89;102793.50;5048435;28;20626;-69
2023/05/31 08:28:00;;;;;;;6.20;1.88;;;;;;;15.84;40.15;102785.47;5054350;27;20688;-70
2023/05/31 08:30:26;;;;;;;5.32;2.55;;;;;;;15.80;40.40;102797.03;5048942;28;20082;-69
2023/05/31 08:32:52;;;;;;;8.45;2.50;;;;;;;15.62;40.14;102787.94;5054529;28;20048;-69
2023/05/31 08:35:18;;;;;;;6.10;2.33;;;;;;;15.23;41.62;102796.09;5079199;28;20039;-69
2023/05/31 08:37:45;;;;;;;7.45;2.72;;;;;;;15.00;41.69;102794.13;5065116;27;20044;-69
2023/05/31 08:40:11;;;;;;;6.60;2.75;;;;;;;14.81;42.72;102806.06;5060266;28;20294;-69
2023/05/31 08:42:58;;;;;;;7.05;2.22;;;;;;;14.69;42.79;102805.47;5056977;28;20082;-69
2023/05/31 08:45:28;;;;;;;6.30;2.28;;;;;;;14.56;43.29;102802.31;5066445;28;20071;-68
2023/05/31 08:48:19;;;;;;;4.07;1.98;;;;;;;14.65;43.12;102811.72;5075340;28;20579;-69
2023/05/31 08:50:45;;;;;;;5.00;1.80;;;;;;;14.91;41.82;102800.50;5059232;28;20048;-69
2023/05/31 08:53:11;;;;;;;7.70;2.33;;;;;;;15.19;42.08;102802.34;5054830;28;20083;-70
2023/05/31 08:55:39;;;;;;;5.13;2.10;;;;;;;15.68;39.74;102792.97;5039459;28;20040;-70
2023/05/31 08:58:06;;;;;;;5.25;1.92;;;;;;;15.93;40.35;102798.38;5056951;28;20433;-69
2023/05/31 09:00:32;;;;;;;5.90;2.50;;;;;;;15.75;39.63;102798.91;5054084;28;20066;-69
2023/05/31 09:02:59;;;;;;;7.05;3.13;;;;;;;15.26;40.89;102800.41;5055183;28;20048;-68
2023/05/31 09:05:25;;;;;;;7.30;3.05;;;;;;;15.14;41.65;102797.19;5052816;28;20033;-69
2023/05/31 09:07:51;;;;;;;7.40;3.05;;;;;;;15.21;41.93;102797.03;5053690;28;20173;-69
2023/05/31 09:10:17;;;;;;;7.78;2.95;;;;;;;16.05;39.34;102806.81;5038242;28;20044;-69
2023/05/31 09:12:43;;;;;;;6.90;3.00;;;;;;;15.56;39.45;102802.13;5052730;28;21021;-68
2023/05/31 09:15:14;;;;;;;3.05;2.20;;;;;;;15.93;39.09;102808.91;5055204;28;20035;-70
2023/05/31 09:17:46;;;;;;;8.27;2.90;;;;;;;16.07;39.26;102803.22;5052590;28;20044;-68
2023/05/31 09:20:12;;;;;;;7.72;2.83;;;;;;;16.76;38.33;102806.16;5053975;28;20048;-68
2023/05/31 09:22:39;;;;;;;5.78;2.70;;;;;;;17.26;36.35;102805.19;5053315;28;20044;-69
2023/05/31 09:25:04;;;;;;;7.40;4.03;;;;;;;16.66;37.54;102793.31;5062807;28;20053;-68
2023/05/31 09:27:36;;;;;;;8.20;2.97;;;;;;;18.01;35.91;102781.09;5070314;28;20079;-69
2023/05/31 09:30:05;;;;;;;;;;;;;;;18.60;34.19;102786.56;5092425;27;20039;-69
2023/05/31 09:32:35;;;;;;;4.68;2.03;;;;;;;18.46;34.19;102790.69;5066866;27;20427;-68
2023/05/31 09:35:11;;;;;;;9.90;2.63;;;;;;;19.12;33.58;102784.25;5055386;28;20276;-70
2023/05/31 09:37:44;;;;;;;5.13;2.17;;;;;;;18.97;34.27;102779.69;5054413;28;20051;-69
2023/05/31 09:40:12;;;;;;;4.80;1.67;;;;;;;18.71;33.29;102784.31;5079680;28;20423;-70
2023/05/31 09:42:38;;;;;;;2.45;1.15;;;;;;;18.89;34.04;102775.56;5065581;27;20395;-69
2023/05/31 09:45:04;;;;;;;2.97;1.27;;;;;;;17.74;35.28;102779.56;5054694;28;20090;-69
2023/05/31 09:47:29;;;;;;;6.95;1.13;;;;;;;18.00;36.12;102775.88;5054804;27;20181;-69
2023/05/31 09:49:55;;;;;;;3.40;0.68;;;;;;;17.97;34.94;102770.72;5075474;28;20028;-68
2023/05/31 09:52:47;;;;;;;3.88;0.63;;;;;;;18.01;35.70;102767.03;5047226;27;20609;-69
2023/05/31 09:55:13;;;;;;;;;;;;;;;18.50;34.33;102766.72;5084326;27;20135;-70
2023/05/31 09:57:40;;;;;;;3.90;0.40;;;;;;;18.69;33.64;102770.28;5065629;28;19919;-69
2023/05/31 10:00:16;;;;;;;2.65;0.40;;;;;;;18.22;32.97;102763.47;5075882;28;20035;-69
2023/05/31 10:02:53;;;;;;;0.73;0.30;;;;;;;17.99;35.75;102763.56;5071087;27;20074;-70
2023/05/31 10:05:21;;;;;;;1.58;0.40;;;;;;;17.63;34.87;102762.38;5072891;28;20066;-69
2023/05/31 10:07:48;;;;;;;1.95;0.50;;;;;;;18.29;35.18;102757.94;5069251;28;20051;-68
2023/05/31 10:10:15;;;;;;;6.30;0.60;;;;;;;18.43;33.11;102752.88;5074940;28;20772;-69
2023/05/31 10:12:50;;;;;;;5.05;0.93;;;;;;;18.36;34.56;102754.94;5082228;27;20054;-69
2023/05/31 10:15:21;;;;;;;2.15;0.40;;;;;;;18.57;32.18;102765.53;5047052;28;20409;-69
2023/05/31 10:18:12;;;;;;;5.70;0.70;;;;;;;18.65;32.24;102750.16;5056692;28;20063;-69
2023/05/31 10:20:42;;;;;;;5.75;0.50;;;;;;;18.49;32.99;102749.97;5070768;28;20277;-68
2023/05/31 10:23:16;;;;;;;3.13;0.60;;;;;;;18.30;34.17;102747.28;5080590;27;20044;-69
2023/05/31 10:25:49;;;;;;;3.53;1.30;;;;;;;17.85;35.29;102743.84;5091879;27;20382;-70
2023/05/31 10:28:21;;;;;;;3.83;1.65;;;;;;;17.84;34.70;102743.91;5052935;28;20237;-69
2023/05/31 10:30:49;;;;;;;4.45;1.45;;;;;;;18.20;33.36;102751.25;5072588;28;20423;-70
2023/05/31 10:33:17;;;;;;;3.25;1.33;;;;;;;18.60;33.68;102755.66;5070930;27;20567;-68
2023/05/31 10:35:44;;;;;;;3.83;1.40;;;;;;;18.85;32.97;102744.84;5070258;27;20060;-69
2023/05/31 10:38:10;;;;;;;3.72;1.30;;;;;;;18.69;34.13;102749.09;5088674;27;20427;-69
2023/05/31 10:40:52;;;;;;;2.70;0.80;;;;;;;18.62;33.27;102737.06;5073312;28;20032;-70
2023/05/31 10:43:42;;;;;;;2.42;0.90;;;;;;;18.63;32.81;102744.94;5071041;27;20048;-69
2023/05/31 10:46:14;;;;;;;5.57;1.55;;;;;;;18.62;33.05;102737.06;5072361;27;20039;-70
2023/05/31 10:48:59;;;;;;;4.72;0.60;;;;;;;18.52;32.51;102744.56;5057883;27;20500;-70
2023/05/31 10:51:39;;;;;;;7.80;0.80;;;;;;;18.54;33.91;102737.41;5053840;28;20398;-72
2023/05/31 10:54:05;;;;;;;4.43;1.00;;;;;;;18.32;33.85;102733.97;5075889;28;20058;-69
2023/05/31 10:56:31;;;;;;;5.93;0.80;;;;;;;18.65;34.28;102740.44;5071912;28;20039;-69
2023/05/31 10:58:59;;;;;;;8.20;1.35;;;;;;;18.88;33.46;102736.78;5070137;27;20046;-74
2023/05/31 11:01:29;;;;;;;7.03;1.98;;;;;;;18.55;33.86;102723.22;5074583;28;20047;-71
2023/05/31 11:03:57;;;;;;;4.05;1.00;;;;;;;18.34;34.66;102718.88;5070507;27;20212;-69
2023/05/31 11:06:30;;;;;;;4.25;1.20;;;;;;;18.65;34.35;102726.31;5071772;28;20135;-69
2023/05/31 11:09:10;;;;;;;7.50;0.98;;;;;;;18.96;34.22;102714.34;5069168;27;20050;-70
2023/05/31 11:11:39;;;;;;;5.45;0.88;;;;;;;18.88;32.92;102718.22;5072563;27;20695;-72
2023/05/31 11:14:06;;;;;;;5.53;0.70;;;;;;;19.32;32.38;102716.19;5093390;27;21356;-69
2023/05/31 11:16:33;;;;;;;8.40;1.50;;;;;;;18.80;32.85;102722.13;5071351;28;20135;-70
2023/05/31 11:19:07;;;;;;;3.22;1.20;;;;;;;18.29;33.85;102724.38;5057243;27;20084;-70
2023/05/31 11:21:50;;;;;;;7.63;1.67;;;;;;;18.51;34.16;102710.19;5049203;28;20039;-71
2023/05/31 11:24:33;;;;;;;8.10;1.70;;;;;;;19.34;32.75;102714.31;5074593;28;20048;-72
2023/05/31 11:27:00;;;;;;;5.95;1.80;;;;;;;18.67;33.42;102714.72;5068909;27;20070;-69
2023/05/31 11:29:47;;;;;;;8.55;1.08;;;;;;;18.61;33.81;102727.41;5058741;28;20201;-69
2023/05/31 11:32:13;;;;;;;2.75;1.00;;;;;;;18.73;33.09;102723.34;5060372;28;20430;-70
2023/05/31 11:34:54;;;;;;;8.68;2.75;;;;;;;18.22;34.57;102713.19;5046999;28;20020;-70
2023/05/31 11:37:23;;;;;;;8.18;2.08;;;;;;;18.51;33.35;102718.16;5050254;28;20028;-70